sensor_id;sensor_type;location;lat;lon;timestamp;pressure;altitude;pressure_sealevel;temperature;humidity
43115;BME280;28727;50.068;14.452;2024-02-21T00:01:29;100045.09;;;8.47;62.40
43115;BME280;28727;50.068;14.452;2024-02-21T00:04:05;100041.09;;;8.52;62.28
43115;BME280;28727;50.068;14.452;2024-02-21T00:06:39;100033.75;;;8.46;62.00
43115;BME280;28727;50.068;14.452;2024-02-21T00:09:10;100035.41;;;8.47;62.07
43115;BME280;28727;50.068;14.452;2024-02-21T00:11:42;100027.50;;;8.47;62.70
43115;BME280;28727;50.068;14.452;2024-02-21T00:14:14;100018.47;;;8.50;62.66
43115;BME280;28727;50.068;14.452;2024-02-21T00:16:45;100012.97;;;8.53;62.62
43115;BME280;28727;50.068;14.452;2024-02-21T00:19:17;100004.09;;;8.54;62.04
43115;BME280;28727;50.068;14.452;2024-02-21T00:21:49;100009.63;;;8.51;62.46
43115;BME280;28727;50.068;14.452;2024-02-21T00:24:21;99999.91;;;8.51;62.05
43115;BME280;28727;50.068;14.452;2024-02-21T00:26:53;100001.47;;;8.54;62.02
43115;BME280;28727;50.068;14.452;2024-02-21T00:29:26;99994.78;;;8.50;62.72
43115;BME280;28727;50.068;14.452;2024-02-21T00:31:58;100000.75;;;8.52;62.42
43115;BME280;28727;50.068;14.452;2024-02-21T00:34:30;99995.91;;;8.47;62.66
43115;BME280;28727;50.068;14.452;2024-02-21T00:37:02;99998.53;;;8.47;62.75
43115;BME280;28727;50.068;14.452;2024-02-21T00:39:34;99991.22;;;8.41;62.61
43115;BME280;28727;50.068;14.452;2024-02-21T00:42:06;99988.56;;;8.41;63.14
43115;BME280;28727;50.068;14.452;2024-02-21T00:44:38;99991.47;;;8.38;62.88
43115;BME280;28727;50.068;14.452;2024-02-21T00:47:10;99989.97;;;8.36;63.29
43115;BME280;28727;50.068;14.452;2024-02-21T00:49:42;99984.25;;;8.31;63.37
43115;BME280;28727;50.068;14.452;2024-02-21T00:52:14;99983.56;;;8.29;63.06
43115;BME280;28727;50.068;14.452;2024-02-21T00:54:46;99982.00;;;8.26;63.08
43115;BME280;28727;50.068;14.452;2024-02-21T00:57:26;99976.75;;;8.26;63.68
43115;BME280;28727;50.068;14.452;2024-02-21T00:59:57;99971.78;;;8.23;63.44
43115;BME280;28727;50.068;14.452;2024-02-21T01:02:29;99971.78;;;8.23;63.49
43115;BME280;28727;50.068;14.452;2024-02-21T01:05:04;99966.78;;;8.20;64.21
43115;BME280;28727;50.068;14.452;2024-02-21T01:07:36;99966.09;;;8.18;63.66
43115;BME280;28727;50.068;14.452;2024-02-21T01:10:08;99961.22;;;8.13;63.65
43115;BME280;28727;50.068;14.452;2024-02-21T01:12:40;99956.66;;;8.15;63.79
43115;BME280;28727;50.068;14.452;2024-02-21T01:15:12;99960.00;;;8.17;64.33
43115;BME280;28727;50.068;14.452;2024-02-21T01:17:43;99956.66;;;8.15;63.77
43115;BME280;28727;50.068;14.452;2024-02-21T01:20:15;99951.28;;;8.17;64.29
43115;BME280;28727;50.068;14.452;2024-02-21T01:22:47;99945.31;;;8.15;64.09
43115;BME280;28727;50.068;14.452;2024-02-21T01:25:21;99947.94;;;8.15;64.55
43115;BME280;28727;50.068;14.452;2024-02-21T01:27:53;99937.56;;;8.13;63.94
43115;BME280;28727;50.068;14.452;2024-02-21T01:30:24;99938.94;;;8.08;64.82
43115;BME280;28727;50.068;14.452;2024-02-21T01:32:56;99933.53;;;8.09;64.72
43115;BME280;28727;50.068;14.452;2024-02-21T01:35:28;99929.25;;;8.08;64.51
43115;BME280;28727;50.068;14.452;2024-02-21T01:38:00;99925.38;;;8.03;64.63
43115;BME280;28727;50.068;14.452;2024-02-21T01:40:32;99927.88;;;8.04;65.16
43115;BME280;28727;50.068;14.452;2024-02-21T01:43:15;99925.50;;;8.01;64.61
43115;BME280;28727;50.068;14.452;2024-02-21T01:45:51;99912.78;;;7.97;64.89
43115;BME280;28727;50.068;14.452;2024-02-21T01:48:24;99920.94;;;7.94;65.66
43115;BME280;28727;50.068;14.452;2024-02-21T01:50:57;99917.06;;;7.98;65.00
43115;BME280;28727;50.068;14.452;2024-02-21T01:53:42;99913.47;;;7.99;65.42
43115;BME280;28727;50.068;14.452;2024-02-21T01:56:14;99903.91;;;7.98;65.28
43115;BME280;28727;50.068;14.452;2024-02-21T01:58:48;99903.78;;;7.99;65.00
43115;BME280;28727;50.068;14.452;2024-02-21T02:01:20;99899.75;;;7.95;65.41
43115;BME280;28727;50.068;14.452;2024-02-21T02:03:53;99899.47;;;7.98;64.85
43115;BME280;28727;50.068;14.452;2024-02-21T02:06:26;99891.19;;;7.93;65.73
43115;BME280;28727;50.068;14.452;2024-02-21T02:08:58;99900.88;;;7.93;65.63
43115;BME280;28727;50.068;14.452;2024-02-21T02:11:32;99900.59;;;7.86;65.50
43115;BME280;28727;50.068;14.452;2024-02-21T02:14:04;99890.47;;;7.91;65.44
43115;BME280;28727;50.068;14.452;2024-02-21T02:16:35;99893.81;;;7.93;65.96
43115;BME280;28727;50.068;14.452;2024-02-21T02:19:07;99884.78;;;7.96;65.68
43115;BME280;28727;50.068;14.452;2024-02-21T02:21:50;99892.56;;;7.97;65.57
43115;BME280;28727;50.068;14.452;2024-02-21T02:24:30;99886.03;;;8.01;65.50
43115;BME280;28727;50.068;14.452;2024-02-21T02:27:02;99888.41;;;8.04;65.21
43115;BME280;28727;50.068;14.452;2024-02-21T02:29:34;99881.22;;;8.06;65.64
43115;BME280;28727;50.068;14.452;2024-02-21T02:32:06;99870.81;;;8.05;65.48
43115;BME280;28727;50.068;14.452;2024-02-21T02:34:40;99869.84;;;8.06;65.76
43115;BME280;28727;50.068;14.452;2024-02-21T02:37:11;99863.63;;;8.07;65.69
43115;BME280;28727;50.068;14.452;2024-02-21T02:39:43;99858.50;;;8.05;65.10
43115;BME280;28727;50.068;14.452;2024-02-21T02:42:15;99853.25;;;8.05;65.79
43115;BME280;28727;50.068;14.452;2024-02-21T02:44:47;99858.38;;;8.07;65.16
43115;BME280;28727;50.068;14.452;2024-02-21T02:47:18;99849.91;;;8.03;66.04
43115;BME280;28727;50.068;14.452;2024-02-21T02:49:50;99853.50;;;8.02;65.54
43115;BME280;28727;50.068;14.452;2024-02-21T02:52:22;99847.28;;;8.03;65.64
43115;BME280;28727;50.068;14.452;2024-02-21T02:54:54;99840.91;;;8.06;65.54
43115;BME280;28727;50.068;14.452;2024-02-21T02:57:27;99838.00;;;8.09;65.39
43115;BME280;28727;50.068;14.452;2024-02-21T02:59:59;99833.88;;;8.06;65.14
43115;BME280;28727;50.068;14.452;2024-02-21T03:02:31;99831.06;;;8.08;65.36
43115;BME280;28727;50.068;14.452;2024-02-21T03:05:14;99828.03;;;8.03;65.84
43115;BME280;28727;50.068;14.452;2024-02-21T03:07:47;99821.94;;;8.02;65.51
43115;BME280;28727;50.068;14.452;2024-02-21T03:10:21;99831.22;;;8.06;65.40
43115;BME280;28727;50.068;14.452;2024-02-21T03:12:52;99818.06;;;8.06;66.04
43115;BME280;28727;50.068;14.452;2024-02-21T03:15:24;99829.25;;;8.08;65.61
43115;BME280;28727;50.068;14.452;2024-02-21T03:17:56;99825.41;;;8.03;66.07
43115;BME280;28727;50.068;14.452;2024-02-21T03:20:28;99826.22;;;8.03;65.35
43115;BME280;28727;50.068;14.452;2024-02-21T03:23:00;99824.56;;;8.02;65.52
43115;BME280;28727;50.068;14.452;2024-02-21T03:25:32;99822.34;;;8.07;65.58
43115;BME280;28727;50.068;14.452;2024-02-21T03:28:03;99829.56;;;8.05;65.69
43115;BME280;28727;50.068;14.452;2024-02-21T03:30:35;99823.47;;;8.05;65.76
43115;BME280;28727;50.068;14.452;2024-02-21T03:33:07;99826.81;;;8.07;65.55
43115;BME280;28727;50.068;14.452;2024-02-21T03:35:39;99818.75;;;8.08;65.96
43115;BME280;28727;50.068;14.452;2024-02-21T03:38:10;99812.13;;;8.04;65.81
43115;BME280;28727;50.068;14.452;2024-02-21T03:40:42;99813.91;;;8.04;66.22
43115;BME280;28727;50.068;14.452;2024-02-21T03:43:14;99815.00;;;8.01;65.86
43115;BME280;28727;50.068;14.452;2024-02-21T03:45:46;99814.78;;;7.95;66.17
43115;BME280;28727;50.068;14.452;2024-02-21T03:48:17;99814.91;;;7.93;66.16
43115;BME280;28727;50.068;14.452;2024-02-21T03:50:50;99815.88;;;7.92;66.18
43115;BME280;28727;50.068;14.452;2024-02-21T03:53:21;99812.28;;;7.93;66.52
43115;BME280;28727;50.068;14.452;2024-02-21T03:55:54;99813.09;;;7.94;66.22
43115;BME280;28727;50.068;14.452;2024-02-21T03:58:26;99808.69;;;7.94;66.47
43115;BME280;28727;50.068;14.452;2024-02-21T04:01:00;99806.44;;;7.99;65.94
43115;BME280;28727;50.068;14.452;2024-02-21T04:03:32;99802.84;;;8.00;65.89
43115;BME280;28727;50.068;14.452;2024-02-21T04:06:04;99805.31;;;8.02;66.43
43115;BME280;28727;50.068;14.452;2024-02-21T04:08:36;99798.44;;;8.01;66.36
43115;BME280;28727;50.068;14.452;2024-02-21T04:11:08;99799.78;;;7.95;66.39
43115;BME280;28727;50.068;14.452;2024-02-21T04:13:40;99808.09;;;7.91;66.22
43115;BME280;28727;50.068;14.452;2024-02-21T04:16:11;99807.00;;;7.93;66.14
43115;BME280;28727;50.068;14.452;2024-02-21T04:18:44;99799.66;;;7.97;66.75
43115;BME280;28727;50.068;14.452;2024-02-21T04:21:16;99804.38;;;7.93;66.24
43115;BME280;28727;50.068;14.452;2024-02-21T04:23:48;99803.69;;;7.91;66.34
43115;BME280;28727;50.068;14.452;2024-02-21T04:26:20;99797.06;;;7.87;66.34
43115;BME280;28727;50.068;14.452;2024-02-21T04:28:52;99799.41;;;7.80;66.82
43115;BME280;28727;50.068;14.452;2024-02-21T04:31:24;99795.94;;;7.80;66.83
43115;BME280;28727;50.068;14.452;2024-02-21T04:33:56;99787.66;;;7.75;67.53
43115;BME280;28727;50.068;14.452;2024-02-21T04:36:28;99784.06;;;7.76;66.43
43115;BME280;28727;50.068;14.452;2024-02-21T04:39:00;99783.22;;;7.75;67.29
43115;BME280;28727;50.068;14.452;2024-02-21T04:41:32;99780.16;;;7.80;67.06
43115;BME280;28727;50.068;14.452;2024-02-21T04:44:04;99773.41;;;7.77;66.57
43115;BME280;28727;50.068;14.452;2024-02-21T04:46:36;99771.88;;;7.75;67.47
43115;BME280;28727;50.068;14.452;2024-02-21T04:49:08;99772.84;;;7.74;67.10
43115;BME280;28727;50.068;14.452;2024-02-21T04:51:40;99769.25;;;7.75;67.44
43115;BME280;28727;50.068;14.452;2024-02-21T04:54:12;99766.31;;;7.78;67.25
43115;BME280;28727;50.068;14.452;2024-02-21T04:56:44;99756.22;;;7.73;67.14
43115;BME280;28727;50.068;14.452;2024-02-21T04:59:16;99765.78;;;7.74;67.25
43115;BME280;28727;50.068;14.452;2024-02-21T05:01:48;99763.28;;;7.73;67.17
43115;BME280;28727;50.068;14.452;2024-02-21T05:04:20;99768.41;;;7.74;66.96
43115;BME280;28727;50.068;14.452;2024-02-21T05:06:51;99767.88;;;7.71;67.31
43115;BME280;28727;50.068;14.452;2024-02-21T05:09:23;99769.81;;;7.69;67.32
43115;BME280;28727;50.068;14.452;2024-02-21T05:11:55;99764.53;;;7.69;67.39
43115;BME280;28727;50.068;14.452;2024-02-21T05:14:27;99770.06;;;7.66;67.50
43115;BME280;28727;50.068;14.452;2024-02-21T05:16:59;99765.09;;;7.63;67.86
43115;BME280;28727;50.068;14.452;2024-02-21T05:19:31;99764.69;;;7.67;67.63
43115;BME280;28727;50.068;14.452;2024-02-21T05:22:03;99766.22;;;7.70;67.48
43115;BME280;28727;50.068;14.452;2024-02-21T05:24:35;99763.44;;;7.71;67.45
43115;BME280;28727;50.068;14.452;2024-02-21T05:27:08;99755.41;;;7.73;67.31
43115;BME280;28727;50.068;14.452;2024-02-21T05:29:42;99761.91;;;7.69;67.32
43115;BME280;28727;50.068;14.452;2024-02-21T05:32:14;99754.16;;;7.67;67.42
43115;BME280;28727;50.068;14.452;2024-02-21T05:34:48;99755.28;;;7.65;67.74
43115;BME280;28727;50.068;14.452;2024-02-21T05:37:21;99757.91;;;7.65;68.08
43115;BME280;28727;50.068;14.452;2024-02-21T05:39:53;99759.56;;;7.66;67.71
43115;BME280;28727;50.068;14.452;2024-02-21T05:42:25;99756.78;;;7.67;67.30
43115;BME280;28727;50.068;14.452;2024-02-21T05:44:57;99763.72;;;7.68;67.78
43115;BME280;28727;50.068;14.452;2024-02-21T05:47:29;99766.09;;;7.71;67.20
43115;BME280;28727;50.068;14.452;2024-02-21T05:50:01;99770.34;;;7.72;67.42
43115;BME280;28727;50.068;14.452;2024-02-21T05:52:32;99761.34;;;7.75;67.55
43115;BME280;28727;50.068;14.452;2024-02-21T05:55:06;99768.81;;;7.79;67.14
43115;BME280;28727;50.068;14.452;2024-02-21T05:57:38;99764.81;;;7.75;67.49
43115;BME280;28727;50.068;14.452;2024-02-21T06:00:10;99752.50;;;7.76;67.31
43115;BME280;28727;50.068;14.452;2024-02-21T06:02:45;99757.91;;;7.74;67.34
43115;BME280;28727;50.068;14.452;2024-02-21T06:05:17;99755.81;;;7.78;67.60
43115;BME280;28727;50.068;14.452;2024-02-21T06:07:49;99749.16;;;7.83;67.48
43115;BME280;28727;50.068;14.452;2024-02-21T06:10:21;99747.50;;;7.82;67.50
43115;BME280;28727;50.068;14.452;2024-02-21T06:12:53;99746.13;;;7.78;67.57
43115;BME280;28727;50.068;14.452;2024-02-21T06:15:25;99749.56;;;7.79;67.46
43115;BME280;28727;50.068;14.452;2024-02-21T06:17:56;99751.78;;;7.83;67.42
43115;BME280;28727;50.068;14.452;2024-02-21T06:20:28;99743.63;;;7.87;67.38
43115;BME280;28727;50.068;14.452;2024-02-21T06:23:00;99739.19;;;7.87;67.22
43115;BME280;28727;50.068;14.452;2024-02-21T06:25:32;99744.84;;;7.92;67.14
43115;BME280;28727;50.068;14.452;2024-02-21T06:28:05;99745.25;;;7.97;66.90
43115;BME280;28727;50.068;14.452;2024-02-21T06:30:37;99742.91;;;7.94;66.79
43115;BME280;28727;50.068;14.452;2024-02-21T06:33:08;99738.50;;;7.95;66.89
43115;BME280;28727;50.068;14.452;2024-02-21T06:35:40;99741.25;;;7.93;67.20
43115;BME280;28727;50.068;14.452;2024-02-21T06:38:14;99741.25;;;7.93;66.87
43115;BME280;28727;50.068;14.452;2024-02-21T06:40:49;99738.63;;;7.93;67.46
43115;BME280;28727;50.068;14.452;2024-02-21T06:43:23;99734.88;;;7.96;67.06
43115;BME280;28727;50.068;14.452;2024-02-21T06:45:55;99731.13;;;7.98;66.93
43115;BME280;28727;50.068;14.452;2024-02-21T06:48:28;99731.66;;;8.02;67.20
43115;BME280;28727;50.068;14.452;2024-02-21T06:51:00;99732.63;;;8.10;66.74
43115;BME280;28727;50.068;14.452;2024-02-21T06:53:32;99740.50;;;8.10;67.02
43115;BME280;28727;50.068;14.452;2024-02-21T06:56:03;99739.09;;;8.16;67.01
43115;BME280;28727;50.068;14.452;2024-02-21T06:58:36;99736.88;;;8.21;67.23
43115;BME280;28727;50.068;14.452;2024-02-21T07:01:08;99731.47;;;8.22;66.50
43115;BME280;28727;50.068;14.452;2024-02-21T07:03:39;99732.31;;;8.23;66.55
43115;BME280;28727;50.068;14.452;2024-02-21T07:06:14;99728.16;;;8.20;66.63
43115;BME280;28727;50.068;14.452;2024-02-21T07:08:46;99726.47;;;8.19;66.63
43115;BME280;28727;50.068;14.452;2024-02-21T07:11:18;99722.22;;;8.18;66.48
43115;BME280;28727;50.068;14.452;2024-02-21T07:13:51;99713.31;;;8.29;66.54
43115;BME280;28727;50.068;14.452;2024-02-21T07:16:23;99719.97;;;8.33;66.28
43115;BME280;28727;50.068;14.452;2024-02-21T07:18:55;99721.31;;;8.37;66.46
43115;BME280;28727;50.068;14.452;2024-02-21T07:21:27;99714.25;;;8.38;66.41
43115;BME280;28727;50.068;14.452;2024-02-21T07:23:59;99709.53;;;8.41;66.36
43115;BME280;28727;50.068;14.452;2024-02-21T07:26:31;99703.00;;;8.45;66.16
43115;BME280;28727;50.068;14.452;2024-02-21T07:29:03;99705.50;;;8.47;65.47
43115;BME280;28727;50.068;14.452;2024-02-21T07:31:42;99697.88;;;8.44;66.41
43115;BME280;28727;50.068;14.452;2024-02-21T07:34:14;99701.06;;;8.47;66.43
43115;BME280;28727;50.068;14.452;2024-02-21T07:36:47;99707.69;;;8.51;66.19
43115;BME280;28727;50.068;14.452;2024-02-21T07:39:19;99702.53;;;8.59;65.68
43115;BME280;28727;50.068;14.452;2024-02-21T07:41:55;99714.84;;;8.59;65.77
43115;BME280;28727;50.068;14.452;2024-02-21T07:44:27;99711.91;;;8.62;65.77
43115;BME280;28727;50.068;14.452;2024-02-21T07:46:58;99713.25;;;8.66;65.72
43115;BME280;28727;50.068;14.452;2024-02-21T07:49:30;99718.38;;;8.68;65.34
43115;BME280;28727;50.068;14.452;2024-02-21T07:52:03;99712.00;;;8.70;65.14
43115;BME280;28727;50.068;14.452;2024-02-21T07:54:35;99711.78;;;8.63;66.13
43115;BME280;28727;50.068;14.452;2024-02-21T07:57:07;99708.59;;;8.60;65.88
43115;BME280;28727;50.068;14.452;2024-02-21T07:59:39;99702.53;;;8.59;65.62
43115;BME280;28727;50.068;14.452;2024-02-21T08:02:11;99702.53;;;8.59;65.54
43115;BME280;28727;50.068;14.452;2024-02-21T08:04:43;99708.59;;;8.60;65.91
43115;BME280;28727;50.068;14.452;2024-02-21T08:07:15;99700.41;;;8.63;65.71
43115;BME280;28727;50.068;14.452;2024-02-21T08:09:46;99703.03;;;8.63;66.00
43115;BME280;28727;50.068;14.452;2024-02-21T08:12:22;99696.13;;;8.62;66.02
43115;BME280;28727;50.068;14.452;2024-02-21T08:14:54;99679.63;;;8.60;66.36
43115;BME280;28727;50.068;14.452;2024-02-21T08:17:26;99679.78;;;8.58;65.67
43115;BME280;28727;50.068;14.452;2024-02-21T08:19:58;99672.13;;;8.65;65.54
43115;BME280;28727;50.068;14.452;2024-02-21T08:22:30;99673.63;;;8.68;66.14
43115;BME280;28727;50.068;14.452;2024-02-21T08:25:02;99677.78;;;8.70;65.72
43115;BME280;28727;50.068;14.452;2024-02-21T08:27:37;99676.94;;;8.70;65.65
43115;BME280;28727;50.068;14.452;2024-02-21T08:30:09;99675.66;;;8.74;65.08
43115;BME280;28727;50.068;14.452;2024-02-21T08:32:41;99665.97;;;8.74;65.80
43115;BME280;28727;50.068;14.452;2024-02-21T08:35:13;99667.47;;;8.77;65.54
43115;BME280;28727;50.068;14.452;2024-02-21T08:37:46;99668.00;;;8.80;65.38
43115;BME280;28727;50.068;14.452;2024-02-21T08:40:19;99667.25;;;8.88;65.01
43115;BME280;28727;50.068;14.452;2024-02-21T08:42:53;99658.56;;;8.95;65.09
43115;BME280;28727;50.068;14.452;2024-02-21T08:45:26;99659.94;;;8.99;64.39
43115;BME280;28727;50.068;14.452;2024-02-21T08:47:58;99659.63;;;9.02;64.61
43115;BME280;28727;50.068;14.452;2024-02-21T08:50:30;99657.38;;;9.08;64.56
43115;BME280;28727;50.068;14.452;2024-02-21T08:53:02;99655.66;;;9.16;64.58
43115;BME280;28727;50.068;14.452;2024-02-21T08:55:34;99669.19;;;9.21;64.55
43115;BME280;28727;50.068;14.452;2024-02-21T08:58:07;99665.06;;;9.19;64.71
43115;BME280;28727;50.068;14.452;2024-02-21T09:00:39;99668.72;;;9.26;64.40
43115;BME280;28727;50.068;14.452;2024-02-21T09:03:11;99670.38;;;9.27;64.05
43115;BME280;28727;50.068;14.452;2024-02-21T09:05:42;99673.34;;;9.24;64.47
43115;BME280;28727;50.068;14.452;2024-02-21T09:08:14;99677.56;;;9.17;64.25
43115;BME280;28727;50.068;14.452;2024-02-21T09:10:46;99675.75;;;9.17;64.05
43115;BME280;28727;50.068;14.452;2024-02-21T09:13:18;99681.69;;;9.19;64.46
43115;BME280;28727;50.068;14.452;2024-02-21T09:15:50;99678.63;;;9.24;64.70
43115;BME280;28727;50.068;14.452;2024-02-21T09:18:22;99683.19;;;9.22;64.19
43115;BME280;28727;50.068;14.452;2024-02-21T09:20:54;99675.28;;;9.22;64.64
43115;BME280;28727;50.068;14.452;2024-02-21T09:23:25;99676.13;;;9.22;64.47
43115;BME280;28727;50.068;14.452;2024-02-21T09:25:57;99672.75;;;9.30;64.67
43115;BME280;28727;50.068;14.452;2024-02-21T09:28:31;99661.25;;;9.39;63.68
43115;BME280;28727;50.068;14.452;2024-02-21T09:31:05;99656.31;;;9.62;63.69
43115;BME280;28727;50.068;14.452;2024-02-21T09:33:36;99653.13;;;10.10;62.68
43115;BME280;28727;50.068;14.452;2024-02-21T09:36:09;99659.97;;;10.87;59.92
43115;BME280;28727;50.068;14.452;2024-02-21T09:38:41;99640.19;;;11.47;58.23
43115;BME280;28727;50.068;14.452;2024-02-21T09:41:17;99641.59;;;11.90;56.61
43115;BME280;28727;50.068;14.452;2024-02-21T09:43:56;99635.44;;;11.98;55.70
43115;BME280;28727;50.068;14.452;2024-02-21T09:46:44;99624.84;;;12.06;56.34
43115;BME280;28727;50.068;14.452;2024-02-21T09:49:30;99620.50;;;12.13;54.95
43115;BME280;28727;50.068;14.452;2024-02-21T09:52:06;99605.13;;;12.09;54.53
43115;BME280;28727;50.068;14.452;2024-02-21T09:54:39;99601.78;;;12.46;53.36
43115;BME280;28727;50.068;14.452;2024-02-21T09:57:13;99610.25;;;13.18;51.74
43115;BME280;28727;50.068;14.452;2024-02-21T09:59:45;99587.38;;;13.83;50.11
43115;BME280;28727;50.068;14.452;2024-02-21T10:02:17;99576.47;;;14.44;48.59
43115;BME280;28727;50.068;14.452;2024-02-21T10:04:50;99581.81;;;14.65;47.47
43115;BME280;28727;50.068;14.452;2024-02-21T10:07:22;99588.34;;;14.62;47.37
43115;BME280;28727;50.068;14.452;2024-02-21T10:10:03;99584.41;;;14.58;46.80
43115;BME280;28727;50.068;14.452;2024-02-21T10:12:35;99579.09;;;14.58;47.18
43115;BME280;28727;50.068;14.452;2024-02-21T10:15:07;99583.72;;;14.71;46.72
43115;BME280;28727;50.068;14.452;2024-02-21T10:17:39;99571.44;;;15.12;46.33
43115;BME280;28727;50.068;14.452;2024-02-21T10:20:12;99579.53;;;15.53;45.33
43115;BME280;28727;50.068;14.452;2024-02-21T10:22:45;99583.94;;;15.74;43.76
43115;BME280;28727;50.068;14.452;2024-02-21T10:25:17;99581.22;;;15.95;44.10
43115;BME280;28727;50.068;14.452;2024-02-21T10:27:51;99580.81;;;15.98;44.39
43115;BME280;28727;50.068;14.452;2024-02-21T10:30:23;99586.63;;;15.74;44.08
43115;BME280;28727;50.068;14.452;2024-02-21T10:32:55;99580.94;;;16.25;43.72
43115;BME280;28727;50.068;14.452;2024-02-21T10:35:32;99569.13;;;16.54;42.17
43115;BME280;28727;50.068;14.452;2024-02-21T10:38:04;99562.31;;;16.45;42.13
43115;BME280;28727;50.068;14.452;2024-02-21T10:40:37;99571.91;;;16.32;42.71
43115;BME280;28727;50.068;14.452;2024-02-21T10:43:14;99571.63;;;16.62;41.12
43115;BME280;28727;50.068;14.452;2024-02-21T10:45:47;99572.50;;;17.22;43.06
43115;BME280;28727;50.068;14.452;2024-02-21T10:48:22;99570.34;;;17.96;40.36
43115;BME280;28727;50.068;14.452;2024-02-21T10:51:03;99570.28;;;18.54;38.02
43115;BME280;28727;50.068;14.452;2024-02-21T10:56:31;99562.72;;;18.82;38.28
43115;BME280;28727;50.068;14.452;2024-02-21T10:59:07;99561.72;;;18.76;37.00
43115;BME280;28727;50.068;14.452;2024-02-21T11:01:39;99561.97;;;18.68;36.37
43115;BME280;28727;50.068;14.452;2024-02-21T11:04:11;99564.63;;;18.75;38.58
43115;BME280;28727;50.068;14.452;2024-02-21T11:06:44;99566.91;;;18.27;40.81
43115;BME280;28727;50.068;14.452;2024-02-21T11:09:16;99554.38;;;17.56;38.09
43115;BME280;28727;50.068;14.452;2024-02-21T11:11:49;99550.72;;;17.11;38.70
43115;BME280;28727;50.068;14.452;2024-02-21T11:14:26;99559.31;;;16.74;39.43
43115;BME280;28727;50.068;14.452;2024-02-21T11:16:58;99551.25;;;16.48;39.46
43115;BME280;28727;50.068;14.452;2024-02-21T11:19:30;99554.06;;;16.20;40.42
43115;BME280;28727;50.068;14.452;2024-02-21T11:22:14;99550.97;;;15.75;40.50
43115;BME280;28727;50.068;14.452;2024-02-21T11:24:46;99555.31;;;15.48;41.87
43115;BME280;28727;50.068;14.452;2024-02-21T11:27:22;99558.25;;;15.04;42.74
43115;BME280;28727;50.068;14.452;2024-02-21T11:29:58;99553.19;;;14.67;43.64
43115;BME280;28727;50.068;14.452;2024-02-21T11:32:31;99549.75;;;14.66;43.83
43115;BME280;28727;50.068;14.452;2024-02-21T11:35:04;99537.69;;;14.70;44.21
43115;BME280;28727;50.068;14.452;2024-02-21T11:37:39;99533.66;;;14.53;44.36
43115;BME280;28727;50.068;14.452;2024-02-21T11:40:12;99525.22;;;14.50;44.58
43115;BME280;28727;50.068;14.452;2024-02-21T11:42:44;99522.63;;;14.56;44.69
43115;BME280;28727;50.068;14.452;2024-02-21T11:45:15;99516.72;;;14.61;44.85
43115;BME280;28727;50.068;14.452;2024-02-21T11:47:49;99517.84;;;14.66;44.59
43115;BME280;28727;50.068;14.452;2024-02-21T11:50:21;99521.47;;;14.44;45.01
43115;BME280;28727;50.068;14.452;2024-02-21T11:52:57;99506.25;;;14.17;45.35
43115;BME280;28727;50.068;14.452;2024-02-21T11:55:29;99504.09;;;14.27;45.55
43115;BME280;28727;50.068;14.452;2024-02-21T11:58:01;99498.13;;;14.04;45.68
43115;BME280;28727;50.068;14.452;2024-02-21T12:00:33;99496.13;;;14.06;45.83
43115;BME280;28727;50.068;14.452;2024-02-21T12:03:05;99484.00;;;14.18;45.96
43115;BME280;28727;50.068;14.452;2024-02-21T12:05:37;99482.19;;;14.40;45.97
43115;BME280;28727;50.068;14.452;2024-02-21T12:08:09;99486.16;;;14.50;45.49
43115;BME280;28727;50.068;14.452;2024-02-21T12:10:42;99473.00;;;14.63;45.51
43115;BME280;28727;50.068;14.452;2024-02-21T12:13:13;99456.50;;;14.96;45.18
43115;BME280;28727;50.068;14.452;2024-02-21T12:15:47;99459.56;;;15.34;44.71
43115;BME280;28727;50.068;14.452;2024-02-21T12:18:20;99450.56;;;15.69;43.92
43115;BME280;28727;50.068;14.452;2024-02-21T12:20:54;99448.19;;;15.94;43.48
43115;BME280;28727;50.068;14.452;2024-02-21T12:23:29;99445.09;;;15.97;43.47
43115;BME280;28727;50.068;14.452;2024-02-21T12:26:01;99443.41;;;15.76;43.19
43115;BME280;28727;50.068;14.452;2024-02-21T12:28:33;99436.25;;;15.77;42.66
43115;BME280;28727;50.068;14.452;2024-02-21T12:31:05;99433.13;;;15.60;43.05
43115;BME280;28727;50.068;14.452;2024-02-21T12:33:36;99432.78;;;15.35;43.71
43115;BME280;28727;50.068;14.452;2024-02-21T12:36:08;99434.03;;;15.05;44.39
43115;BME280;28727;50.068;14.452;2024-02-21T12:38:40;99424.72;;;14.88;44.97
43115;BME280;28727;50.068;14.452;2024-02-21T12:41:13;99418.16;;;14.84;44.46
43115;BME280;28727;50.068;14.452;2024-02-21T12:43:44;99408.34;;;14.84;45.00
43115;BME280;28727;50.068;14.452;2024-02-21T12:46:16;99398.84;;;15.09;44.63
43115;BME280;28727;50.068;14.452;2024-02-21T12:48:48;99397.75;;;15.38;44.34
43115;BME280;28727;50.068;14.452;2024-02-21T12:51:20;99390.84;;;15.50;44.20
43115;BME280;28727;50.068;14.452;2024-02-21T12:53:52;99383.69;;;15.51;43.52
43115;BME280;28727;50.068;14.452;2024-02-21T12:56:24;99371.72;;;15.27;44.00
43115;BME280;28727;50.068;14.452;2024-02-21T12:58:58;99373.28;;;15.15;44.27
43115;BME280;28727;50.068;14.452;2024-02-21T13:01:30;99376.13;;;15.07;44.05
43115;BME280;28727;50.068;14.452;2024-02-21T13:04:02;99371.81;;;15.06;43.96
43115;BME280;28727;50.068;14.452;2024-02-21T13:06:34;99362.38;;;15.03;44.60
43115;BME280;28727;50.068;14.452;2024-02-21T13:09:08;99345.84;;;15.14;44.13
43115;BME280;28727;50.068;14.452;2024-02-21T13:11:42;99350.00;;;15.24;46.40
43115;BME280;28727;50.068;14.452;2024-02-21T13:14:16;99340.94;;;15.59;44.96
43115;BME280;28727;50.068;14.452;2024-02-21T13:16:48;99338.72;;;15.82;43.91
43115;BME280;28727;50.068;14.452;2024-02-21T13:19:23;99335.66;;;15.92;46.71
43115;BME280;28727;50.068;14.452;2024-02-21T13:21:57;99338.34;;;16.05;43.11
43115;BME280;28727;50.068;14.452;2024-02-21T13:24:30;99331.38;;;16.11;42.70
43115;BME280;28727;50.068;14.452;2024-02-21T13:27:01;99329.53;;;16.05;42.88
43115;BME280;28727;50.068;14.452;2024-02-21T13:29:35;99322.75;;;15.76;42.97